Time;durP1;ratioP1;P1;durP2;ratioP2;P2;SDS_P1;SDS_P2;PMS_P1;PMS_P2;Temp;Humidity;BMP_temperature;BMP_pressure;BME280_temperature;BME280_humidity;BME280_pressure;Samples;Min_cycle;Max_cycle;Signal;HPM_P1;HPM_P2
2021/09/29 00:00:16;;;;;;;4.50;4.10;;;;;;;;;;4936252;29;20279;-73
2021/09/29 00:02:42;;;;;;;11.00;5.10;;;;;;;;;;4937625;29;20526;-73
2021/09/29 00:05:07;;;;;;;13.30;4.80;;;;;;;;;;4938140;28;20672;-72
2021/09/29 00:07:32;;;;;;;7.43;4.77;;;;;;;;;;4926771;28;20203;-73
2021/09/29 00:09:58;;;;;;;7.87;4.70;;;;;;;;;;4940065;28;20186;-73
2021/09/29 00:12:23;;;;;;;7.80;4.50;;;;;;;;;;4936007;28;20731;-73
2021/09/29 00:14:48;;;;;;;7.60;4.73;;;;;;;;;;4936527;28;20192;-73
2021/09/29 00:17:14;;;;;;;7.13;4.50;;;;;;;;;;4944084;28;20219;-73
2021/09/29 00:19:39;;;;;;;9.57;4.70;;;;;;;;;;4951373;28;20191;-73
2021/09/29 00:22:04;;;;;;;10.17;5.40;;;;;;;;;;4941104;28;20283;-73
2021/09/29 00:24:29;;;;;;;9.47;5.10;;;;;;;;;;4935634;29;20317;-72
2021/09/29 00:26:55;;;;;;;10.90;5.00;;;;;;;;;;4937887;28;20223;-73
2021/09/29 00:29:20;;;;;;;6.93;5.13;;;;;;;;;;4938194;28;20191;-74
2021/09/29 00:31:46;;;;;;;8.13;5.27;;;;;;;;;;4937656;28;20200;-72
2021/09/29 00:34:12;;;;;;;9.10;5.00;;;;;;;;;;4939446;28;20195;-72
2021/09/29 00:36:39;;;;;;;7.67;5.33;;;;;;;;;;4939583;28;20798;-73
2021/09/29 00:39:05;;;;;;;9.33;4.90;;;;;;;;;;4938498;28;20481;-73
2021/09/29 00:41:31;;;;;;;10.80;5.33;;;;;;;;;;4939935;29;20445;-73
2021/09/29 00:43:59;;;;;;;8.70;5.50;;;;;;;;;;4939776;28;20943;-73
2021/09/29 00:46:25;;;;;;;8.83;5.37;;;;;;;;;;4937939;28;20304;-73
2021/09/29 00:48:50;;;;;;;8.20;5.37;;;;;;;;;;4937215;28;20438;-73
2021/09/29 00:51:15;;;;;;;9.50;5.43;;;;;;;;;;4937634;28;20212;-73
2021/09/29 00:53:45;;;;;;;6.20;5.60;;;;;;;;;;4934497;28;20242;-73
2021/09/29 00:56:11;;;;;;;10.47;5.80;;;;;;;;;;4938688;29;20176;-74
2021/09/29 00:58:36;;;;;;;9.37;5.60;;;;;;;;;;4937455;28;20442;-73
2021/09/29 01:01:02;;;;;;;8.13;5.77;;;;;;;;;;4936236;28;20226;-73
2021/09/29 01:03:27;;;;;;;8.87;5.50;;;;;;;;;;4936967;28;20207;-73
2021/09/29 01:05:56;;;;;;;9.50;5.60;;;;;;;;;;4935405;28;20599;-73
2021/09/29 01:08:30;;;;;;;9.07;6.10;;;;;;;;;;4935580;28;20306;-73
2021/09/29 01:11:06;;;;;;;9.03;6.10;;;;;;;;;;4936698;28;20427;-73
2021/09/29 01:13:40;;;;;;;11.30;7.03;;;;;;;;;;4934035;28;20446;-73
2021/09/29 01:16:07;;;;;;;9.10;6.70;;;;;;;;;;4938014;28;20916;-73
2021/09/29 01:18:34;;;;;;;9.57;6.47;;;;;;;;;;4933963;28;20436;-73
2021/09/29 01:21:03;;;;;;;9.20;7.30;;;;;;;;;;4937903;28;20485;-72
2021/09/29 01:23:29;;;;;;;9.00;6.50;;;;;;;;;;4935032;28;20861;-73
2021/09/29 01:25:57;;;;;;;9.17;7.10;;;;;;;;;;4936336;28;20432;-73
2021/09/29 01:28:54;;;;;;;8.67;7.10;;;;;;;;;;4938571;28;20214;-73
2021/09/29 01:31:20;;;;;;;7.40;6.70;;;;;;;;;;4934491;28;20475;-72
2021/09/29 01:33:46;;;;;;;9.37;6.90;;;;;;;;;;4935223;28;20497;-73
2021/09/29 01:36:11;;;;;;;12.23;7.70;;;;;;;;;;4935797;28;20199;-73
2021/09/29 01:38:39;;;;;;;13.30;7.30;;;;;;;;;;4935132;28;20447;-72
2021/09/29 01:41:05;;;;;;;9.30;7.20;;;;;;;;;;4934681;28;20267;-72
2021/09/29 01:43:30;;;;;;;11.17;7.10;;;;;;;;;;4935328;28;20593;-73
2021/09/29 01:45:55;;;;;;;10.03;7.57;;;;;;;;;;4946669;29;20431;-73
2021/09/29 01:48:21;;;;;;;8.90;7.60;;;;;;;;;;4936289;28;20207;-73
2021/09/29 01:50:49;;;;;;;9.03;6.67;;;;;;;;;;4936200;28;20179;-73
2021/09/29 01:53:16;;;;;;;9.37;7.30;;;;;;;;;;4936706;28;20203;-73
2021/09/29 01:55:41;;;;;;;9.70;7.57;;;;;;;;;;4932668;28;20431;-73
2021/09/29 01:58:06;;;;;;;7.97;6.40;;;;;;;;;;4935081;28;20533;-72
2021/09/29 02:00:32;;;;;;;12.13;7.60;;;;;;;;;;4935877;28;20270;-72
2021/09/29 02:02:59;;;;;;;10.10;7.60;;;;;;;;;;4936632;28;20187;-73
2021/09/29 02:05:26;;;;;;;14.73;7.80;;;;;;;;;;4936801;28;20259;-73
2021/09/29 02:07:51;;;;;;;9.93;7.63;;;;;;;;;;4938790;28;20455;-72
2021/09/29 02:10:16;;;;;;;8.10;7.00;;;;;;;;;;4937153;28;20430;-72
2021/09/29 02:12:42;;;;;;;8.10;7.30;;;;;;;;;;4932986;28;20270;-73
2021/09/29 02:15:07;;;;;;;9.60;6.50;;;;;;;;;;4936870;28;20172;-72
2021/09/29 02:17:32;;;;;;;7.43;6.73;;;;;;;;;;4934621;28;20962;-72
2021/09/29 02:19:58;;;;;;;8.10;7.30;;;;;;;;;;4932976;28;20186;-72
2021/09/29 02:22:23;;;;;;;10.90;7.70;;;;;;;;;;4939033;28;20183;-72
2021/09/29 02:24:48;;;;;;;8.73;7.03;;;;;;;;;;4934333;28;20738;-72
2021/09/29 02:27:13;;;;;;;6.93;6.23;;;;;;;;;;4936483;29;20202;-72
2021/09/29 02:29:39;;;;;;;9.40;6.80;;;;;;;;;;4936642;28;20179;-72
2021/09/29 02:32:04;;;;;;;9.83;7.10;;;;;;;;;;4937019;29;20211;-73
2021/09/29 02:34:29;;;;;;;7.17;6.47;;;;;;;;;;4937093;29;20556;-75
2021/09/29 02:36:55;;;;;;;9.57;7.20;;;;;;;;;;4935483;28;20302;-73
2021/09/29 02:39:20;;;;;;;10.90;7.67;;;;;;;;;;4935101;28;20206;-73
2021/09/29 02:41:45;;;;;;;15.17;7.07;;;;;;;;;;4946210;28;20203;-73
2021/09/29 02:44:11;;;;;;;9.33;6.50;;;;;;;;;;4948105;28;20250;-73
2021/09/29 02:46:38;;;;;;;9.07;6.93;;;;;;;;;;4943148;28;20245;-73
2021/09/29 02:49:03;;;;;;;7.53;6.53;;;;;;;;;;4941421;29;20430;-73
2021/09/29 02:51:28;;;;;;;7.93;6.73;;;;;;;;;;4939146;28;20458;-73
2021/09/29 02:53:54;;;;;;;11.63;7.00;;;;;;;;;;4941120;28;20180;-73
2021/09/29 02:56:19;;;;;;;7.13;6.43;;;;;;;;;;4942822;29;20214;-73
2021/09/29 02:58:44;;;;;;;7.10;5.70;;;;;;;;;;4938452;28;20184;-73
2021/09/29 03:01:09;;;;;;;6.43;5.40;;;;;;;;;;4940453;28;20187;-73
2021/09/29 03:03:35;;;;;;;7.63;5.70;;;;;;;;;;4941487;28;20183;-73
2021/09/29 03:06:00;;;;;;;6.43;5.80;;;;;;;;;;4938585;29;20187;-73
2021/09/29 03:08:25;;;;;;;6.10;5.37;;;;;;;;;;4940200;28;20675;-73
2021/09/29 03:10:51;;;;;;;6.43;5.63;;;;;;;;;;4937017;28;20195;-73
2021/09/29 03:13:16;;;;;;;7.43;6.17;;;;;;;;;;4938190;28;20554;-73
2021/09/29 03:15:41;;;;;;;9.30;5.53;;;;;;;;;;4937867;28;20242;-73
2021/09/29 03:18:07;;;;;;;9.97;5.80;;;;;;;;;;4936453;28;20315;-73
2021/09/29 03:20:32;;;;;;;6.40;5.63;;;;;;;;;;4940721;28;20194;-73
2021/09/29 03:22:57;;;;;;;6.13;5.50;;;;;;;;;;4939478;28;20679;-73
2021/09/29 03:25:23;;;;;;;7.53;5.50;;;;;;;;;;4938283;28;20207;-73
2021/09/29 03:27:49;;;;;;;6.23;4.93;;;;;;;;;;4937347;28;20250;-73
2021/09/29 03:30:14;;;;;;;6.60;5.97;;;;;;;;;;4936695;28;20477;-74
2021/09/29 03:32:39;;;;;;;8.23;5.70;;;;;;;;;;4936797;28;20187;-74
2021/09/29 03:35:06;;;;;;;10.87;5.57;;;;;;;;;;4937202;28;20214;-73
2021/09/29 03:37:32;;;;;;;6.27;5.20;;;;;;;;;;4936892;28;20350;-74
2021/09/29 03:39:57;;;;;;;9.80;5.40;;;;;;;;;;4939858;28;21126;-73
2021/09/29 03:42:22;;;;;;;7.63;5.50;;;;;;;;;;4938582;28;20191;-74
2021/09/29 03:44:47;;;;;;;5.37;4.83;;;;;;;;;;4937156;28;20204;-74
2021/09/29 03:47:13;;;;;;;9.17;5.47;;;;;;;;;;4938089;28;20747;-74
2021/09/29 03:49:38;;;;;;;6.37;4.70;;;;;;;;;;4936597;28;20228;-74
2021/09/29 03:52:04;;;;;;;15.17;5.83;;;;;;;;;;4939109;28;20266;-74
2021/09/29 03:54:29;;;;;;;7.90;5.73;;;;;;;;;;4935024;28;20597;-73
2021/09/29 03:56:54;;;;;;;7.77;5.30;;;;;;;;;;4935118;28;20577;-74
2021/09/29 03:59:19;;;;;;;6.47;5.53;;;;;;;;;;4937535;28;20199;-73
2021/09/29 04:01:46;;;;;;;7.40;5.40;;;;;;;;;;4939658;28;20256;-74
2021/09/29 04:04:11;;;;;;;8.10;6.10;;;;;;;;;;4951026;28;20279;-74
2021/09/29 04:06:36;;;;;;;9.37;5.53;;;;;;;;;;4936379;28;20486;-73
2021/09/29 04:09:02;;;;;;;10.87;5.60;;;;;;;;;;4936167;28;20557;-73
2021/09/29 04:11:27;;;;;;;7.07;5.07;;;;;;;;;;4936347;28;20240;-73
2021/09/29 04:13:52;;;;;;;8.43;4.73;;;;;;;;;;4941064;28;20210;-74
2021/09/29 04:16:18;;;;;;;6.90;5.43;;;;;;;;;;4936758;28;20240;-73
2021/09/29 04:18:43;;;;;;;7.77;5.90;;;;;;;;;;4934032;28;20188;-73
2021/09/29 04:21:10;;;;;;;7.83;5.37;;;;;;;;;;4937058;28;20196;-73
2021/09/29 04:23:37;;;;;;;7.20;5.60;;;;;;;;;;4937532;28;25280;-74
2021/09/29 04:26:03;;;;;;;10.00;6.30;;;;;;;;;;4936232;28;20443;-73
2021/09/29 04:28:29;;;;;;;8.07;5.90;;;;;;;;;;4939172;28;20870;-74
2021/09/29 04:30:54;;;;;;;6.00;5.40;;;;;;;;;;4936745;28;20449;-73
2021/09/29 04:33:19;;;;;;;8.37;5.20;;;;;;;;;;4934583;28;20443;-74
2021/09/29 04:35:44;;;;;;;8.50;5.67;;;;;;;;;;4934479;28;20183;-74
2021/09/29 04:38:10;;;;;;;8.17;5.87;;;;;;;;;;4933150;28;20218;-73
2021/09/29 04:40:35;;;;;;;11.97;5.80;;;;;;;;;;4938490;28;20199;-74
2021/09/29 04:43:00;;;;;;;8.13;5.70;;;;;;;;;;4936737;28;20196;-74
2021/09/29 04:45:26;;;;;;;6.50;5.63;;;;;;;;;;4937155;28;20202;-74
2021/09/29 04:47:51;;;;;;;6.43;5.83;;;;;;;;;;4933618;28;20214;-73
2021/09/29 04:50:16;;;;;;;5.20;4.70;;;;;;;;;;4931700;28;20271;-73
2021/09/29 04:52:44;;;;;;;7.63;6.80;;;;;;;;;;4933331;28;20191;-73
2021/09/29 04:55:09;;;;;;;9.70;5.70;;;;;;;;;;4937979;28;20184;-73
2021/09/29 04:57:35;;;;;;;10.83;6.70;;;;;;;;;;4935023;28;20505;-73
2021/09/29 05:00:00;;;;;;;7.50;6.40;;;;;;;;;;4937812;28;20209;-73
2021/09/29 05:02:25;;;;;;;6.93;6.07;;;;;;;;;;4931160;28;20194;-74
2021/09/29 05:04:50;;;;;;;8.60;6.60;;;;;;;;;;4939028;28;20203;-73
2021/09/29 05:07:17;;;;;;;8.93;6.53;;;;;;;;;;4934620;28;20212;-73
2021/09/29 05:09:43;;;;;;;10.20;6.57;;;;;;;;;;4930133;28;20198;-74
2021/09/29 05:12:15;;;;;;;10.17;6.57;;;;;;;;;;4931995;28;22101;-73
2021/09/29 05:14:40;;;;;;;10.90;6.67;;;;;;;;;;4932041;28;21114;-73
2021/09/29 05:17:05;;;;;;;7.43;5.70;;;;;;;;;;4934317;28;20473;-73
2021/09/29 05:19:31;;;;;;;7.97;5.63;;;;;;;;;;4936708;28;20231;-73
2021/09/29 05:21:56;;;;;;;7.83;5.80;;;;;;;;;;4934687;28;20893;-73
2021/09/29 05:24:21;;;;;;;10.63;5.70;;;;;;;;;;4935081;28;20200;-73
2021/09/29 05:26:47;;;;;;;10.10;5.77;;;;;;;;;;4934354;28;20199;-73
2021/09/29 05:29:12;;;;;;;7.93;5.20;;;;;;;;;;4938511;28;20246;-74
2021/09/29 05:31:37;;;;;;;5.87;5.27;;;;;;;;;;4934231;28;20207;-73
2021/09/29 05:34:03;;;;;;;8.37;5.10;;;;;;;;;;4936409;28;20183;-73
2021/09/29 05:36:28;;;;;;;9.60;5.47;;;;;;;;;;4934282;28;20254;-73
2021/09/29 05:38:53;;;;;;;7.70;5.10;;;;;;;;;;4936488;28;20654;-73
2021/09/29 05:41:18;;;;;;;8.10;6.00;;;;;;;;;;4937163;28;20194;-73
2021/09/29 05:43:44;;;;;;;6.53;5.30;;;;;;;;;;4945674;28;20223;-73
2021/09/29 05:46:09;;;;;;;6.03;5.00;;;;;;;;;;4937750;28;20172;-73
2021/09/29 05:48:34;;;;;;;11.73;6.00;;;;;;;;;;4936153;28;20180;-73
2021/09/29 05:51:00;;;;;;;7.87;4.90;;;;;;;;;;4933766;28;20528;-73
2021/09/29 05:53:25;;;;;;;8.70;5.40;;;;;;;;;;4936379;28;22120;-73
2021/09/29 05:55:50;;;;;;;9.00;5.07;;;;;;;;;;4937224;28;20548;-73
2021/09/29 05:58:16;;;;;;;10.37;5.83;;;;;;;;;;4932807;28;20254;-73
2021/09/29 06:00:41;;;;;;;6.53;4.77;;;;;;;;;;4934734;28;20190;-74
2021/09/29 06:03:06;;;;;;;8.30;4.70;;;;;;;;;;4935865;28;20191;-73
2021/09/29 06:05:32;;;;;;;8.20;5.03;;;;;;;;;;4935375;28;20218;-74
2021/09/29 06:07:59;;;;;;;6.23;4.90;;;;;;;;;;4933503;28;20353;-74
2021/09/29 06:10:24;;;;;;;5.03;4.53;;;;;;;;;;4934917;28;20627;-74
2021/09/29 06:12:50;;;;;;;7.43;5.20;;;;;;;;;;4935711;28;20522;-74
2021/09/29 06:15:25;;;;;;;6.10;4.67;;;;;;;;;;4938874;28;20195;-73
2021/09/29 06:18:00;;;;;;;8.47;4.90;;;;;;;;;;4937832;28;20214;-74
2021/09/29 06:20:31;;;;;;;9.03;4.57;;;;;;;;;;4940135;28;20430;-74
2021/09/29 06:22:57;;;;;;;5.50;4.70;;;;;;;;;;4942688;28;20513;-73
2021/09/29 06:25:22;;;;;;;8.27;5.33;;;;;;;;;;4939876;28;20959;-73
2021/09/29 06:27:48;;;;;;;6.20;4.60;;;;;;;;;;4940462;28;20623;-74
2021/09/29 06:30:14;;;;;;;7.17;5.03;;;;;;;;;;4936999;28;20198;-73
2021/09/29 06:32:39;;;;;;;10.57;5.93;;;;;;;;;;4944405;28;20430;-74
2021/09/29 06:35:05;;;;;;;5.50;4.93;;;;;;;;;;4944352;28;20180;-74
2021/09/29 06:37:31;;;;;;;9.00;4.90;;;;;;;;;;4939943;29;20200;-74
2021/09/29 06:39:57;;;;;;;8.30;5.87;;;;;;;;;;4938392;28;20203;-74
2021/09/29 06:42:22;;;;;;;7.40;5.23;;;;;;;;;;4941378;28;20445;-73
2021/09/29 06:44:47;;;;;;;8.00;5.13;;;;;;;;;;4940954;28;20747;-73
2021/09/29 06:47:12;;;;;;;6.60;5.53;;;;;;;;;;4941572;28;20211;-74
2021/09/29 06:49:38;;;;;;;6.97;5.33;;;;;;;;;;4944469;28;20283;-73
2021/09/29 06:52:03;;;;;;;7.97;5.50;;;;;;;;;;4937194;29;20207;-73
2021/09/29 06:54:29;;;;;;;7.77;5.30;;;;;;;;;;4937074;28;20191;-74
2021/09/29 06:56:54;;;;;;;5.93;4.40;;;;;;;;;;4938310;28;20210;-73
2021/09/29 06:59:19;;;;;;;6.30;5.17;;;;;;;;;;4939219;28;20183;-73
2021/09/29 07:01:44;;;;;;;5.23;4.50;;;;;;;;;;4938316;28;20296;-73
2021/09/29 07:04:10;;;;;;;8.60;5.33;;;;;;;;;;4938464;28;20247;-73
2021/09/29 07:06:35;;;;;;;10.17;5.10;;;;;;;;;;4938830;28;20200;-74
2021/09/29 07:09:00;;;;;;;8.87;4.77;;;;;;;;;;4939088;29;20176;-73
2021/09/29 07:11:25;;;;;;;8.47;5.47;;;;;;;;;;4939549;28;20648;-74
2021/09/29 07:13:51;;;;;;;7.27;5.40;;;;;;;;;;4938334;28;20175;-73
2021/09/29 07:16:18;;;;;;;8.57;5.57;;;;;;;;;;4938295;28;20186;-73
2021/09/29 07:18:43;;;;;;;7.20;5.17;;;;;;;;;;4934460;28;20171;-73
2021/09/29 07:21:08;;;;;;;7.70;5.50;;;;;;;;;;4932774;28;20440;-73
2021/09/29 07:23:34;;;;;;;8.07;5.50;;;;;;;;;;4936188;28;20658;-74
2021/09/29 07:25:59;;;;;;;8.83;4.33;;;;;;;;;;4939195;28;20268;-74
2021/09/29 07:28:24;;;;;;;7.27;5.03;;;;;;;;;;4936560;28;20196;-74
2021/09/29 07:30:49;;;;;;;6.60;5.47;;;;;;;;;;4938580;28;20546;-73
2021/09/29 07:33:15;;;;;;;8.13;5.37;;;;;;;;;;4934752;28;20530;-74
2021/09/29 07:35:41;;;;;;;8.43;4.97;;;;;;;;;;4938193;28;20206;-74
2021/09/29 07:38:07;;;;;;;9.20;4.70;;;;;;;;;;4938067;28;20286;-74
2021/09/29 07:40:32;;;;;;;10.40;5.53;;;;;;;;;;4936504;28;21201;-74
2021/09/29 07:42:57;;;;;;;8.53;5.10;;;;;;;;;;4935572;28;20180;-73
2021/09/29 07:45:23;;;;;;;9.70;5.20;;;;;;;;;;4945738;28;20211;-74
2021/09/29 07:47:49;;;;;;;5.30;4.80;;;;;;;;;;4936294;28;21289;-73
2021/09/29 07:50:16;;;;;;;9.60;6.20;;;;;;;;;;4937097;28;20184;-73
2021/09/29 07:52:41;;;;;;;6.47;5.33;;;;;;;;;;4947637;28;20175;-73
2021/09/29 07:55:07;;;;;;;9.97;5.73;;;;;;;;;;4946281;28;20442;-74
2021/09/29 07:57:32;;;;;;;8.20;5.50;;;;;;;;;;4940521;28;20238;-73
2021/09/29 07:59:57;;;;;;;5.50;4.53;;;;;;;;;;4937116;28;20179;-73
2021/09/29 08:02:23;;;;;;;9.00;5.30;;;;;;;;;;4935581;28;20175;-73
2021/09/29 08:04:48;;;;;;;7.50;4.83;;;;;;;;;;4938780;28;20554;-73
2021/09/29 08:07:14;;;;;;;7.90;5.03;;;;;;;;;;4938648;28;20773;-73
2021/09/29 08:09:40;;;;;;;8.53;6.30;;;;;;;;;;4933543;28;20187;-73
2021/09/29 08:12:05;;;;;;;8.87;6.37;;;;;;;;;;4932924;28;20431;-73
2021/09/29 08:14:32;;;;;;;8.03;5.67;;;;;;;;;;4934629;28;20183;-73
2021/09/29 08:16:57;;;;;;;8.57;5.70;;;;;;;;;;4931687;28;20207;-73
2021/09/29 08:19:22;;;;;;;8.37;5.00;;;;;;;;;;4941065;28;20431;-73
2021/09/29 08:21:48;;;;;;;7.77;5.67;;;;;;;;;;4934361;28;20213;-73
2021/09/29 08:24:20;;;;;;;7.77;5.47;;;;;;;;;;4932058;28;20207;-73
2021/09/29 08:32:25;;;;;;;8.77;5.40;;;;;;;;;;4935214;28;20427;-73
2021/09/29 08:34:57;;;;;;;10.63;4.90;;;;;;;;;;4931003;28;20423;-73
2021/09/29 08:37:32;;;;;;;10.27;5.23;;;;;;;;;;4936013;28;20495;-74
2021/09/29 08:40:04;;;;;;;9.97;5.10;;;;;;;;;;4936432;28;20796;-73
2021/09/29 08:44:58;;;;;;;5.70;4.30;;;;;;;;;;4933499;28;20459;-73
2021/09/29 08:48:21;;;;;;;5.30;4.37;;;;;;;;;;4933668;28;20303;-73
2021/09/29 08:50:21;;;;;;;10.90;4.20;;;;;;;;;;4942266;28;20422;-73
2021/09/29 09:17:24;;;;;;;12.20;4.70;;;;;;;;;;4935793;28;20948;-73
2021/09/29 09:19:49;;;;;;;8.80;4.57;;;;;;;;;;4936266;28;20434;-73
2021/09/29 09:22:15;;;;;;;10.53;4.57;;;;;;;;;;4928041;28;20427;-73
2021/09/29 09:24:40;;;;;;;8.20;4.47;;;;;;;;;;4931972;28;20211;-73
2021/09/29 09:27:07;;;;;;;10.07;3.60;;;;;;;;;;4936621;28;20683;-73
2021/09/29 09:29:49;;;;;;;10.43;4.47;;;;;;;;;;4933589;28;20195;-73
2021/09/29 09:32:16;;;;;;;12.10;4.20;;;;;;;;;;4934161;28;20904;-72
2021/09/29 09:34:42;;;;;;;13.70;5.10;;;;;;;;;;4936611;28;20547;-73
2021/09/29 09:37:08;;;;;;;9.13;4.63;;;;;;;;;;4935691;28;20533;-73
2021/09/29 09:39:33;;;;;;;7.65;3.92;;;;;;;;;;4880929;28;1574189;-73
2021/09/29 09:42:01;;;;;;;6.07;4.07;;;;;;;;;;4937493;28;20183;-73
2021/09/29 09:44:30;;;;;;;7.97;3.47;;;;;;;;;;4937415;28;20231;-73
2021/09/29 09:47:05;;;;;;;7.13;3.80;;;;;;;;;;4934919;28;20471;-73
2021/09/29 09:49:31;;;;;;;7.13;3.70;;;;;;;;;;4936972;28;20426;-73
2021/09/29 09:52:00;;;;;;;9.57;4.60;;;;;;;;;;4938085;28;20431;-72
2021/09/29 09:54:32;;;;;;;6.70;4.00;;;;;;;;;;4931938;28;20441;-73
2021/09/29 09:56:58;;;;;;;8.13;3.50;;;;;;;;;;4936263;28;20451;-74
2021/09/29 09:59:28;;;;;;;6.93;3.80;;;;;;;;;;4933968;28;20937;-73
2021/09/29 10:01:53;;;;;;;8.97;4.00;;;;;;;;;;4931572;28;20225;-73
2021/09/29 10:04:18;;;;;;;6.20;3.67;;;;;;;;;;4935397;28;20986;-73
2021/09/29 10:06:44;;;;;;;3.93;3.53;;;;;;;;;;4936940;28;20196;-73
2021/09/29 10:09:23;;;;;;;15.10;4.53;;;;;;;;;;4929745;28;20184;-73
2021/09/29 10:27:56;;;;;;;4.80;3.40;;;;;;;;;;4935683;28;20850;-73
2021/09/29 10:30:34;;;;;;;5.30;3.30;;;;;;;;;;4936006;28;20424;-73
2021/09/29 10:33:01;;;;;;;7.13;3.37;;;;;;;;;;4932638;28;20506;-73
2021/09/29 10:35:39;;;;;;;6.10;3.80;;;;;;;;;;4934452;28;20438;-73
2021/09/29 10:43:20;;;;;;;6.83;3.30;;;;;;;;;;4931371;28;20513;-73
2021/09/29 10:46:27;;;;;;;8.10;3.20;;;;;;;;;;4930306;28;20470;-74
2021/09/29 10:48:52;;;;;;;7.33;3.07;;;;;;;;;;4934310;28;20807;-74
2021/09/29 11:27:50;;;;;;;5.23;3.80;;;;;;;;;;4940077;28;20446;-74
2021/09/29 11:30:24;;;;;;;5.30;3.60;;;;;;;;;;4942285;28;20431;-74
2021/09/29 11:35:28;;;;;;;6.57;3.57;;;;;;;;;;4944687;28;20431;-73
2021/09/29 12:08:16;;;;;;;2.80;1.60;;;;;;;;;;4941314;28;20446;-74
2021/09/29 12:13:58;;;;;;;1.80;1.40;;;;;;;;;;4956466;28;20427;-75
2021/09/29 12:16:34;;;;;;;1.60;1.50;;;;;;;;;;4939218;28;20866;-75
2021/09/29 12:19:03;;;;;;;3.20;1.90;;;;;;;;;;4940425;28;20489;-75
2021/09/29 12:21:41;;;;;;;1.73;1.63;;;;;;;;;;4939993;28;20502;-75
2021/09/29 12:24:08;;;;;;;1.53;1.40;;;;;;;;;;4942296;28;20411;-75
2021/09/29 12:27:01;;;;;;;2.23;1.50;;;;;;;;;;4941587;28;20482;-74
2021/09/29 12:29:33;;;;;;;2.70;1.30;;;;;;;;;;4940419;28;20431;-74
2021/09/29 12:35:15;;;;;;;2.20;1.77;;;;;;;;;;4930894;28;20510;-74
2021/09/29 12:37:52;;;;;;;1.83;1.70;;;;;;;;;;4937053;28;20800;-74
2021/09/29 12:40:17;;;;;;;1.50;1.13;;;;;;;;;;4940212;28;20455;-74
2021/09/29 12:42:42;;;;;;;5.60;1.50;;;;;;;;;;4938304;29;20930;-74
2021/09/29 12:45:08;;;;;;;1.40;1.30;;;;;;;;;;4938727;28;20291;-74
2021/09/29 12:50:10;;;;;;;1.33;1.10;;;;;;;;;;4938582;28;20183;-74
2021/09/29 12:52:37;;;;;;;0.80;0.80;;;;;;;;;;4940119;28;20187;-74
2021/09/29 12:55:03;;;;;;;1.77;1.00;;;;;;;;;;4941008;29;20422;-74
2021/09/29 12:57:29;;;;;;;1.30;1.20;;;;;;;;;;4941684;29;21050;-75
2021/09/29 12:59:56;;;;;;;1.23;1.03;;;;;;;;;;4940531;28;20543;-74
2021/09/29 13:02:21;;;;;;;1.57;0.97;;;;;;;;;;4940788;28;20522;-74
2021/09/29 13:04:46;;;;;;;4.63;1.00;;;;;;;;;;4940936;28;20553;-74
2021/09/29 13:07:11;;;;;;;1.03;0.80;;;;;;;;;;4939141;28;20683;-74
2021/09/29 13:09:37;;;;;;;1.13;0.90;;;;;;;;;;4941792;28;20623;-74
2021/09/29 13:12:02;;;;;;;1.03;0.60;;;;;;;;;;4939413;28;20245;-74
2021/09/29 13:14:27;;;;;;;0.70;0.70;;;;;;;;;;4940354;28;20188;-75
2021/09/29 13:16:53;;;;;;;1.77;0.70;;;;;;;;;;4937912;28;20618;-74
2021/09/29 13:19:25;;;;;;;0.90;0.60;;;;;;;;;;4944487;28;20199;-74
2021/09/29 13:21:53;;;;;;;1.17;0.70;;;;;;;;;;4941780;28;20736;-74
2021/09/29 13:24:30;;;;;;;1.83;0.60;;;;;;;;;;4938718;28;21052;-74
2021/09/29 13:37:39;;;;;;;1.20;0.50;;;;;;;;;;4939180;28;20534;-74
2021/09/29 13:40:05;;;;;;;1.13;0.57;;;;;;;;;;4937423;28;20602;-74
2021/09/29 13:42:30;;;;;;;1.07;0.60;;;;;;;;;;4940394;28;20213;-74
2021/09/29 13:44:57;;;;;;;3.17;0.60;;;;;;;;;;4936880;28;20946;-74
2021/09/29 13:47:22;;;;;;;0.70;0.60;;;;;;;;;;4938112;28;20676;-74
2021/09/29 13:49:47;;;;;;;1.70;0.90;;;;;;;;;;4935433;28;20435;-73
2021/09/29 13:52:14;;;;;;;1.93;0.80;;;;;;;;;;4935430;28;20227;-74
2021/09/29 13:54:41;;;;;;;1.03;0.70;;;;;;;;;;4930772;28;20261;-73
2021/09/29 13:57:17;;;;;;;1.20;0.77;;;;;;;;;;4934830;28;20455;-74
2021/09/29 14:29:36;;;;;;;2.00;0.70;;;;;;;;;;4935408;28;20478;-74
2021/09/29 14:34:26;;;;;;;3.10;1.00;;;;;;;;;;4936118;28;21076;-74
2021/09/29 14:36:52;;;;;;;0.83;0.80;;;;;;;;;;4940123;28;20207;-74
2021/09/29 14:39:17;;;;;;;1.50;0.80;;;;;;;;;;4942091;28;20218;-74
2021/09/29 14:41:43;;;;;;;1.60;0.77;;;;;;;;;;4938462;28;20277;-74
2021/09/29 14:44:08;;;;;;;1.07;0.70;;;;;;;;;;4946844;28;20187;-73
2021/09/29 14:46:34;;;;;;;2.10;0.90;;;;;;;;;;4941489;28;20202;-73
2021/09/29 14:48:59;;;;;;;4.23;1.00;;;;;;;;;;4942807;28;20190;-75
2021/09/29 14:51:24;;;;;;;1.80;0.90;;;;;;;;;;4941935;28;20175;-76
2021/09/29 14:53:50;;;;;;;2.83;0.90;;;;;;;;;;4937864;28;20184;-73
2021/09/29 14:56:17;;;;;;;4.70;0.93;;;;;;;;;;4941544;28;20191;-73
2021/09/29 14:58:43;;;;;;;2.27;0.70;;;;;;;;;;4944239;28;20988;-74
2021/09/29 15:01:09;;;;;;;3.33;0.90;;;;;;;;;;4942129;28;20528;-73
2021/09/29 15:03:36;;;;;;;2.00;0.70;;;;;;;;;;4944258;28;20611;-73
2021/09/29 15:06:03;;;;;;;5.50;1.00;;;;;;;;;;4939538;28;20223;-73
2021/09/29 15:08:28;;;;;;;0.97;0.60;;;;;;;;;;4940402;28;20542;-73
2021/09/29 15:10:53;;;;;;;3.33;0.80;;;;;;;;;;4942739;28;20522;-73
2021/09/29 15:13:24;;;;;;;2.63;1.20;;;;;;;;;;4940959;28;20180;-73
2021/09/29 15:15:56;;;;;;;0.77;0.63;;;;;;;;;;4940909;28;20219;-73
2021/09/29 15:18:35;;;;;;;1.33;0.70;;;;;;;;;;4942140;28;20485;-73
2021/09/29 15:26:26;;;;;;;2.00;0.80;;;;;;;;;;4945936;28;20473;-75
2021/09/29 15:47:39;;;;;;;4.80;0.90;;;;;;;;;;4946916;28;20522;-76
2021/09/29 15:52:54;;;;;;;1.70;0.90;;;;;;;;;;4942526;28;20493;-74
2021/09/29 15:58:42;;;;;;;2.20;0.90;;;;;;;;;;4944737;28;20512;-73
2021/09/29 16:13:53;;;;;;;4.20;0.80;;;;;;;;;;4939741;28;20449;-73
2021/09/29 16:35:03;;;;;;;4.97;1.33;;;;;;;;;;4938977;28;20446;-76
2021/09/29 16:37:28;;;;;;;4.83;1.60;;;;;;;;;;4941129;28;20470;-75
2021/09/29 16:39:54;;;;;;;5.23;1.20;;;;;;;;;;4937557;28;20446;-75
2021/09/29 16:42:19;;;;;;;4.20;1.20;;;;;;;;;;4938090;28;20864;-76
2021/09/29 16:44:45;;;;;;;6.77;2.47;;;;;;;;;;4937373;28;20766;-75
2021/09/29 16:47:10;;;;;;;5.13;1.17;;;;;;;;;;4939324;28;20216;-76
2021/09/29 16:49:37;;;;;;;4.43;1.77;;;;;;;;;;4935245;28;20175;-75
2021/09/29 16:52:09;;;;;;;5.43;1.63;;;;;;;;;;4941178;28;20187;-73
2021/09/29 16:54:35;;;;;;;5.47;1.13;;;;;;;;;;4939707;28;20442;-74
2021/09/29 16:57:08;;;;;;;7.27;1.50;;;;;;;;;;4937617;28;20492;-75
2021/09/29 16:59:46;;;;;;;9.07;1.53;;;;;;;;;;4937822;28;20203;-74
2021/09/29 17:02:14;;;;;;;8.93;2.67;;;;;;;;;;4936158;28;20481;-77
2021/09/29 17:04:39;;;;;;;4.17;1.20;;;;;;;;;;4943020;28;21035;-75
2021/09/29 17:07:05;;;;;;;9.50;1.43;;;;;;;;;;4943314;28;20462;-74
2021/09/29 17:09:32;;;;;;;8.03;1.60;;;;;;;;;;4937000;28;20215;-74
2021/09/29 17:11:57;;;;;;;1.53;0.90;;;;;;;;;;4934157;28;20246;-75
2021/09/29 17:14:22;;;;;;;4.00;1.03;;;;;;;;;;4934720;28;20431;-76
2021/09/29 17:16:48;;;;;;;7.60;1.23;;;;;;;;;;4941115;28;20302;-74
2021/09/29 17:19:13;;;;;;;5.80;1.47;;;;;;;;;;4936845;28;20183;-73
2021/09/29 17:21:38;;;;;;;4.47;1.10;;;;;;;;;;4939114;28;20184;-75
2021/09/29 17:24:04;;;;;;;5.03;1.23;;;;;;;;;;4938603;28;20187;-74
2021/09/29 17:26:29;;;;;;;3.60;1.40;;;;;;;;;;4936641;28;20202;-74
2021/09/29 17:28:56;;;;;;;6.13;1.77;;;;;;;;;;4937738;28;20266;-74
2021/09/29 17:31:28;;;;;;;4.77;1.40;;;;;;;;;;4940982;28;20194;-76
2021/09/29 17:33:58;;;;;;;3.50;1.20;;;;;;;;;;4942547;28;20422;-76
2021/09/29 17:52:42;;;;;;;9.80;1.00;;;;;;;;;;4936828;28;20446;-75
2021/09/29 17:55:10;;;;;;;3.03;1.37;;;;;;;;;;4938108;28;20963;-74
2021/09/29 17:57:35;;;;;;;4.93;1.13;;;;;;;;;;4937703;28;21024;-75
2021/09/29 18:00:01;;;;;;;2.37;1.00;;;;;;;;;;4939681;28;20426;-75
2021/09/29 18:02:35;;;;;;;4.50;1.20;;;;;;;;;;4936472;28;20180;-75
2021/09/29 18:05:05;;;;;;;7.10;1.40;;;;;;;;;;4937972;28;20203;-73
2021/09/29 18:07:39;;;;;;;3.93;1.20;;;;;;;;;;4938355;28;20971;-75
2021/09/29 18:10:05;;;;;;;7.93;1.57;;;;;;;;;;4941299;28;20749;-75
2021/09/29 18:12:30;;;;;;;3.50;1.00;;;;;;;;;;4939955;28;20825;-74
2021/09/29 18:14:55;;;;;;;3.80;1.23;;;;;;;;;;4943883;28;20452;-76
2021/09/29 18:17:21;;;;;;;2.70;0.93;;;;;;;;;;4950054;28;20195;-77
2021/09/29 18:19:46;;;;;;;4.73;1.20;;;;;;;;;;4940609;28;20179;-75
2021/09/29 18:22:11;;;;;;;3.00;1.10;;;;;;;;;;4939726;28;20175;-75
2021/09/29 18:24:37;;;;;;;7.50;1.43;;;;;;;;;;4937973;28;20711;-75
2021/09/29 18:27:02;;;;;;;4.00;1.00;;;;;;;;;;4939708;28;20194;-74
2021/09/29 18:29:27;;;;;;;6.43;1.20;;;;;;;;;;4938958;28;20535;-76
2021/09/29 18:31:53;;;;;;;7.20;1.10;;;;;;;;;;4940981;28;20175;-75
2021/09/29 18:34:20;;;;;;;2.60;1.40;;;;;;;;;;4937890;28;20176;-76
2021/09/29 18:36:46;;;;;;;3.77;1.03;;;;;;;;;;4935228;28;20377;-76
2021/09/29 18:39:11;;;;;;;7.30;1.10;;;;;;;;;;4939401;28;20438;-76
2021/09/29 18:41:37;;;;;;;3.40;1.07;;;;;;;;;;4938338;28;20184;-76
2021/09/29 18:44:05;;;;;;;4.40;1.10;;;;;;;;;;4938245;28;20180;-75
2021/09/29 18:46:32;;;;;;;3.70;1.10;;;;;;;;;;4939396;28;20474;-76
2021/09/29 18:48:58;;;;;;;3.60;1.53;;;;;;;;;;4938447;28;20959;-76
2021/09/29 18:51:23;;;;;;;8.93;1.50;;;;;;;;;;4938509;29;20431;-76